createdAt,value
2022-10-11T00:00:10.071Z,16.57
2022-10-11T00:02:36.939Z,16.43
2022-10-11T00:05:04.481Z,16.57
2022-10-11T00:07:31.260Z,16.50
2022-10-11T00:09:58.009Z,16.56
2022-10-11T00:12:24.753Z,16.36
2022-10-11T00:14:51.492Z,16.52
2022-10-11T00:17:18.241Z,16.52
2022-10-11T00:19:45.016Z,16.49
2022-10-11T00:22:12.067Z,16.48
2022-10-11T00:24:38.808Z,16.46
2022-10-11T00:27:05.740Z,16.39
2022-10-11T00:29:32.578Z,16.37
2022-10-11T00:31:59.394Z,16.39
2022-10-11T00:34:26.317Z,16.37
2022-10-11T00:36:53.103Z,16.34
2022-10-11T00:39:19.928Z,16.35
2022-10-11T00:41:47.842Z,16.36
2022-10-11T00:44:25.978Z,16.27
2022-10-11T00:47:22.032Z,16.25
2022-10-11T00:49:58.400Z,16.23
2022-10-11T00:52:33.884Z,16.23
2022-10-11T00:55:14.988Z,16.22
2022-10-11T00:57:46.962Z,16.15
2022-10-11T01:00:16.133Z,16.18
2022-10-11T01:02:43.767Z,16.13
2022-10-11T01:05:29.277Z,16.12
2022-10-11T01:08:00.318Z,16.10
2022-10-11T01:10:28.348Z,15.94
2022-10-11T01:12:59.398Z,16.10
2022-10-11T01:15:31.734Z,16.06
2022-10-11T01:18:09.367Z,16.00
2022-10-11T01:20:57.616Z,16.01
2022-10-11T01:23:53.197Z,16.01
2022-10-11T01:27:14.345Z,15.97
2022-10-11T01:30:20.235Z,15.90
2022-10-11T01:33:19.694Z,15.83
2022-10-11T01:36:20.023Z,15.84
2022-10-11T01:38:56.641Z,15.81
2022-10-11T01:41:31.141Z,15.85
2022-10-11T01:44:01.843Z,15.82
2022-10-11T01:46:29.613Z,15.84
2022-10-11T01:48:59.568Z,15.74
2022-10-11T01:51:55.913Z,15.78
2022-10-11T01:55:10.585Z,15.75
2022-10-11T01:57:40.458Z,15.73
2022-10-11T02:00:16.718Z,15.71
2022-10-11T02:03:19.057Z,15.68
2022-10-11T02:06:24.792Z,15.69
2022-10-11T02:09:21.443Z,15.61
2022-10-11T02:11:49.084Z,15.57
2022-10-11T02:14:21.713Z,15.56
2022-10-11T02:16:58.023Z,15.54
2022-10-11T02:19:31.670Z,15.37
2022-10-11T02:22:05.538Z,15.54
2022-10-11T02:24:36.826Z,15.52
2022-10-11T02:27:05.926Z,15.51
2022-10-11T02:29:36.419Z,15.50
2022-10-11T02:32:03.583Z,15.51
2022-10-11T02:34:43.329Z,15.50
2022-10-11T02:37:33.189Z,15.41
2022-10-11T02:40:28.292Z,15.47
2022-10-11T02:43:04.616Z,15.46
2022-10-11T02:45:50.033Z,15.43
2022-10-11T02:48:18.027Z,15.35
2022-10-11T02:50:45.048Z,15.33
2022-10-11T02:53:11.935Z,15.36
2022-10-11T02:55:38.783Z,15.31
2022-10-11T02:58:05.584Z,15.33
2022-10-11T03:00:32.400Z,15.26
2022-10-11T03:02:59.199Z,15.27
2022-10-11T03:05:25.936Z,15.29
2022-10-11T03:07:52.756Z,15.28
2022-10-11T03:10:19.534Z,15.28
2022-10-11T03:12:46.317Z,15.27
2022-10-11T03:15:13.177Z,15.25
2022-10-11T03:17:39.987Z,15.17
2022-10-11T03:20:07.614Z,15.22
2022-10-11T03:22:34.634Z,15.20
2022-10-11T03:25:04.264Z,15.20
2022-10-11T03:27:32.801Z,15.18
2022-10-11T03:29:59.736Z,15.15
2022-10-11T03:32:26.748Z,14.99
2022-10-11T03:34:53.554Z,15.12
2022-10-11T03:37:20.323Z,15.12
2022-10-11T03:39:47.089Z,15.10
2022-10-11T03:42:14.451Z,15.14
2022-10-11T03:44:42.133Z,15.15
2022-10-11T03:47:09.318Z,15.12
2022-10-11T03:49:39.885Z,15.10
2022-10-11T03:52:09.528Z,15.10
2022-10-11T03:54:36.432Z,15.13
2022-10-11T03:57:03.293Z,15.14
2022-10-11T03:59:30.136Z,15.12
2022-10-11T04:01:57.017Z,15.07
2022-10-11T04:04:23.916Z,15.12
2022-10-11T04:06:50.770Z,15.08
2022-10-11T04:09:17.687Z,15.12
2022-10-11T04:11:44.460Z,15.08
2022-10-11T04:14:11.349Z,15.14
2022-10-11T04:16:38.769Z,15.12
2022-10-11T04:19:06.176Z,15.15
2022-10-11T04:21:33.094Z,15.11
2022-10-11T04:23:59.966Z,15.08
2022-10-11T04:26:27.046Z,15.11
2022-10-11T04:28:54.206Z,15.12
2022-10-11T04:31:21.177Z,15.08
2022-10-11T04:33:48.028Z,15.12
2022-10-11T04:36:14.838Z,14.94
2022-10-11T04:38:41.727Z,15.09
2022-10-11T04:41:09.926Z,15.14
2022-10-11T04:43:37.533Z,15.15
2022-10-11T04:46:05.675Z,15.10
2022-10-11T04:48:33.041Z,15.17
2022-10-11T04:50:59.937Z,15.13
2022-10-11T04:53:26.777Z,15.10
2022-10-11T04:56:03.303Z,15.17
2022-10-11T04:58:31.931Z,15.18
2022-10-11T05:00:59.086Z,15.19
2022-10-11T05:03:26.764Z,15.18
2022-10-11T05:05:53.600Z,15.22
2022-10-11T05:08:23.084Z,15.26
2022-10-11T05:11:04.107Z,15.29
2022-10-11T05:13:32.152Z,15.27
2022-10-11T05:15:59.100Z,15.24
2022-10-11T05:18:26.431Z,15.26
2022-10-11T05:21:21.483Z,15.30
2022-10-11T05:23:50.047Z,15.25
2022-10-11T05:26:18.303Z,15.30
2022-10-11T05:28:45.370Z,15.30
2022-10-11T05:31:12.469Z,15.33
2022-10-11T05:33:39.589Z,15.36
2022-10-11T05:36:07.519Z,15.33
2022-10-11T05:38:35.053Z,15.38
2022-10-11T05:41:06.625Z,15.36
2022-10-11T05:43:33.654Z,15.30
2022-10-11T05:46:00.429Z,15.36
2022-10-11T05:48:28.407Z,15.30
2022-10-11T05:51:05.320Z,15.37
2022-10-11T05:53:33.179Z,15.35
2022-10-11T05:56:00.367Z,15.37
2022-10-11T05:58:27.873Z,15.43
2022-10-11T06:00:56.707Z,15.39
2022-10-11T06:03:24.061Z,15.43
2022-10-11T06:05:55.819Z,15.37
2022-10-11T06:08:23.703Z,15.39
2022-10-11T06:10:50.488Z,15.33
2022-10-11T06:13:17.270Z,15.49
2022-10-11T06:15:44.015Z,15.49
2022-10-11T06:18:10.758Z,15.50
2022-10-11T06:20:37.726Z,15.43
2022-10-11T06:23:04.582Z,15.48
2022-10-11T06:25:31.365Z,15.47
2022-10-11T06:27:58.126Z,15.46
2022-10-11T06:30:24.871Z,15.48
2022-10-11T06:32:51.624Z,15.48
2022-10-11T06:35:18.510Z,15.46
2022-10-11T06:37:45.282Z,15.46
2022-10-11T06:40:12.371Z,15.53
2022-10-11T06:42:39.240Z,15.52
2022-10-11T06:45:06.841Z,15.57
2022-10-11T06:47:33.590Z,15.38
2022-10-11T06:50:00.415Z,15.56
2022-10-11T06:52:27.279Z,15.53
2022-10-11T06:54:54.018Z,15.50
2022-10-11T06:57:20.880Z,15.56
2022-10-11T06:59:47.728Z,15.55
2022-10-11T07:02:14.559Z,15.58
2022-10-11T07:04:41.354Z,15.55
2022-10-11T07:07:08.142Z,15.61
2022-10-11T07:09:35.106Z,15.58
2022-10-11T07:12:01.882Z,15.54
2022-10-11T07:14:28.760Z,15.54
2022-10-11T07:16:55.615Z,15.58
2022-10-11T07:19:22.384Z,15.55
2022-10-11T07:21:49.335Z,15.57
2022-10-11T07:24:16.083Z,15.56
2022-10-11T07:26:43.082Z,15.57
2022-10-11T07:29:11.443Z,15.54
2022-10-11T07:31:41.185Z,15.54
2022-10-11T07:34:08.989Z,15.59
2022-10-11T07:36:36.618Z,15.62
2022-10-11T07:39:08.122Z,15.66
2022-10-11T07:41:36.623Z,15.67
2022-10-11T07:44:03.518Z,15.65
2022-10-11T07:46:31.231Z,15.68
2022-10-11T07:48:58.381Z,15.69
2022-10-11T07:51:26.175Z,15.74
2022-10-11T07:53:56.503Z,15.73
2022-10-11T07:56:26.845Z,15.73
2022-10-11T07:58:57.332Z,15.73
2022-10-11T08:01:25.732Z,15.71
2022-10-11T08:03:53.125Z,15.65
2022-10-11T08:06:23.526Z,15.59
2022-10-11T08:08:50.449Z,15.61
2022-10-11T08:11:27.435Z,15.63
2022-10-11T08:13:54.611Z,15.60
2022-10-11T08:16:21.946Z,15.61
2022-10-11T08:18:48.757Z,15.61
2022-10-11T08:21:18.365Z,15.63
2022-10-11T08:23:45.362Z,15.66
2022-10-11T08:26:12.468Z,15.67
2022-10-11T08:28:39.363Z,15.71
2022-10-11T08:31:06.793Z,15.68
2022-10-11T08:33:33.870Z,15.67
2022-10-11T08:36:06.026Z,15.73
2022-10-11T08:38:34.447Z,15.72
2022-10-11T08:41:01.519Z,15.74
2022-10-11T08:44:12.066Z,15.75
2022-10-11T08:46:43.232Z,15.76
2022-10-11T08:49:13.251Z,15.61
2022-10-11T08:51:51.494Z,15.70
2022-10-11T08:54:37.328Z,15.77
2022-10-11T08:57:06.747Z,15.78
2022-10-11T08:59:43.243Z,15.85
2022-10-11T09:02:55.666Z,15.82
2022-10-11T09:05:23.750Z,15.81
2022-10-11T09:07:59.243Z,15.86
2022-10-11T09:10:58.748Z,15.85
2022-10-11T09:14:01.201Z,15.84
2022-10-11T09:16:47.841Z,15.88
2022-10-11T09:19:34.526Z,15.90
2022-10-11T09:22:08.925Z,15.90
2022-10-11T09:25:10.072Z,15.93
2022-10-11T09:28:01.922Z,15.94
2022-10-11T09:30:30.159Z,15.91
2022-10-11T09:33:20.245Z,15.93
2022-10-11T09:35:51.973Z,15.95
2022-10-11T09:38:45.271Z,15.99
2022-10-11T09:41:27.844Z,15.97
2022-10-11T09:43:54.724Z,15.92
2022-10-11T09:46:57.043Z,15.99
2022-10-11T09:49:31.889Z,16.00
2022-10-11T09:52:02.620Z,16.04
2022-10-11T09:54:51.139Z,16.06
2022-10-11T09:57:31.415Z,16.02
2022-10-11T10:00:21.658Z,16.09
2022-10-11T10:02:52.054Z,16.10
2022-10-11T10:05:36.651Z,16.10
2022-10-11T10:08:09.267Z,16.12
2022-10-11T10:10:42.995Z,16.07
2022-10-11T10:13:28.858Z,16.15
2022-10-11T10:16:01.237Z,16.15
2022-10-11T10:18:44.858Z,16.17
2022-10-11T10:21:15.782Z,16.18
2022-10-11T10:23:43.537Z,16.19
2022-10-11T10:26:13.259Z,16.20
2022-10-11T10:29:09.991Z,16.15
2022-10-11T10:32:12.457Z,16.21
2022-10-11T10:34:37.891Z,16.21
2022-10-11T10:37:32.735Z,16.17
2022-10-11T10:40:06.978Z,16.14
2022-10-11T10:42:33.832Z,16.15
2022-10-11T10:45:01.183Z,16.09
2022-10-11T10:47:42.775Z,16.10
2022-10-11T10:50:25.863Z,16.13
2022-10-11T10:53:35.166Z,16.14
2022-10-11T10:56:34.707Z,16.12
2022-10-11T10:59:29.700Z,16.14
2022-10-11T11:02:35.546Z,16.14
2022-10-11T11:05:23.660Z,16.19
2022-10-11T11:08:03.905Z,16.17
2022-10-11T11:10:39.446Z,16.21
2022-10-11T11:13:12.314Z,16.23
2022-10-11T11:16:30.023Z,16.23
2022-10-11T11:19:37.358Z,16.25
2022-10-11T11:23:06.340Z,16.26
2022-10-11T11:26:04.854Z,16.31
2022-10-11T11:28:57.044Z,16.32
2022-10-11T11:31:55.994Z,16.33
2022-10-11T11:34:48.038Z,16.33
2022-10-11T11:37:25.295Z,16.35
2022-10-11T11:40:01.830Z,16.35
2022-10-11T11:42:42.135Z,16.38
2022-10-11T11:45:20.736Z,16.44
2022-10-11T11:48:10.342Z,16.46
2022-10-11T11:50:52.012Z,16.45
2022-10-11T11:53:50.726Z,16.52
2022-10-11T11:56:38.275Z,16.50
2022-10-11T11:59:40.850Z,16.57
2022-10-11T12:02:35.454Z,16.58
2022-10-11T12:05:02.531Z,16.57
2022-10-11T12:07:30.042Z,16.58
2022-10-11T12:10:26.973Z,16.59
2022-10-11T12:13:16.521Z,16.60
2022-10-11T12:16:16.125Z,16.64
2022-10-11T12:19:03.309Z,16.65
2022-10-11T12:21:40.514Z,16.67
2022-10-11T12:24:24.081Z,16.68
2022-10-11T12:26:56.768Z,16.72
2022-10-11T12:29:45.999Z,16.75
2022-10-11T12:32:28.163Z,16.75
2022-10-11T12:35:32.251Z,16.77
2022-10-11T12:38:30.521Z,16.75
2022-10-11T12:41:09.350Z,16.83
2022-10-11T12:44:19.750Z,16.84
2022-10-11T12:46:55.570Z,16.84
2022-10-11T12:49:32.180Z,16.85
2022-10-11T12:52:16.152Z,16.82
2022-10-11T12:54:58.754Z,16.86
2022-10-11T12:57:46.388Z,16.88
2022-10-11T13:00:30.836Z,16.83
2022-10-11T13:03:01.613Z,16.90
2022-10-11T13:05:49.731Z,16.90
2022-10-11T13:08:30.128Z,16.88
2022-10-11T13:11:06.324Z,16.89
2022-10-11T13:13:44.537Z,16.94
2022-10-11T13:16:21.306Z,16.92
2022-10-11T13:18:54.212Z,16.97
2022-10-11T13:21:36.089Z,16.96
2022-10-11T13:24:14.620Z,17.00
2022-10-11T13:26:43.737Z,16.99
2022-10-11T13:29:33.507Z,16.96
2022-10-11T13:32:05.667Z,17.01
2022-10-11T13:34:38.452Z,16.98
2022-10-11T13:37:06.161Z,17.02
2022-10-11T13:39:39.165Z,17.04
2022-10-11T13:42:11.452Z,17.01
2022-10-11T13:44:39.391Z,17.02
2022-10-11T13:47:06.538Z,17.02
2022-10-11T13:49:40.103Z,17.00
2022-10-11T13:52:20.945Z,16.99
2022-10-11T13:55:04.426Z,16.99
2022-10-11T13:57:40.187Z,17.02
2022-10-11T14:00:16.761Z,17.03
2022-10-11T14:03:05.790Z,17.03
2022-10-11T14:05:40.166Z,17.01
2022-10-11T14:08:30.693Z,16.99
2022-10-11T14:11:02.476Z,16.98
2022-10-11T14:13:43.083Z,17.00
2022-10-11T14:16:29.882Z,16.99
2022-10-11T14:18:59.630Z,17.00
2022-10-11T14:22:00.255Z,17.00
2022-10-11T14:24:27.040Z,16.96
2022-10-11T14:26:56.236Z,16.92
2022-10-11T14:29:31.721Z,16.98
2022-10-11T14:32:05.226Z,16.97
2022-10-11T14:34:33.446Z,16.98
2022-10-11T14:37:00.430Z,16.96
2022-10-11T14:39:30.522Z,17.00
2022-10-11T14:41:57.524Z,17.00
2022-10-11T14:44:25.254Z,16.99
2022-10-11T14:46:54.674Z,17.00
2022-10-11T14:49:29.287Z,17.00
2022-10-11T14:51:58.745Z,17.02
2022-10-11T14:54:27.463Z,17.00
2022-10-11T14:56:56.868Z,16.98
2022-10-11T14:59:28.409Z,17.01
2022-10-11T15:01:55.224Z,16.99
2022-10-11T15:04:24.980Z,16.94
2022-10-11T15:06:54.005Z,17.00
2022-10-11T15:09:21.886Z,16.98
2022-10-11T15:11:51.575Z,16.98
2022-10-11T15:14:18.542Z,16.95
2022-10-11T15:16:45.345Z,16.99
2022-10-11T15:19:23.467Z,16.97
2022-10-11T15:21:50.965Z,17.01
2022-10-11T15:24:21.169Z,17.00
2022-10-11T15:26:49.097Z,17.00
2022-10-11T15:29:21.835Z,16.97
2022-10-11T15:31:49.445Z,16.97
2022-10-11T15:34:16.942Z,16.96
2022-10-11T15:36:45.757Z,16.96
2022-10-11T15:39:32.555Z,16.96
2022-10-11T15:42:00.144Z,16.93
2022-10-11T15:44:27.169Z,16.95
2022-10-11T15:46:54.032Z,16.88
2022-10-11T15:49:20.923Z,16.93
2022-10-11T15:51:47.755Z,16.90
2022-10-11T15:54:14.538Z,16.82
2022-10-11T15:56:41.297Z,16.94
2022-10-11T15:59:11.543Z,16.96
2022-10-11T16:01:38.406Z,16.88
2022-10-11T16:04:05.308Z,16.89
2022-10-11T16:06:33.284Z,16.83
2022-10-11T16:09:00.042Z,16.80
2022-10-11T16:11:26.883Z,16.83
2022-10-11T16:13:53.665Z,16.81
2022-10-11T16:16:20.513Z,16.80
2022-10-11T16:18:50.277Z,16.78
2022-10-11T16:21:17.289Z,16.57
2022-10-11T16:23:44.135Z,16.72
2022-10-11T16:26:14.762Z,16.74
2022-10-11T16:28:42.102Z,16.58
2022-10-11T16:31:13.688Z,16.78
2022-10-11T16:33:45.525Z,16.70
2022-10-11T16:36:34.443Z,16.74
2022-10-11T16:39:10.947Z,16.78
2022-10-11T16:41:38.529Z,16.79
2022-10-11T16:44:06.157Z,16.59
2022-10-11T16:46:33.861Z,16.70
2022-10-11T16:49:00.794Z,16.67
2022-10-11T16:51:27.568Z,16.68
2022-10-11T16:53:54.484Z,16.67
2022-10-11T16:56:24.004Z,16.64
2022-10-11T16:58:54.851Z,16.63
2022-10-11T17:01:22.092Z,16.71
2022-10-11T17:03:49.944Z,16.69
2022-10-11T17:06:16.861Z,16.59
2022-10-11T17:08:43.845Z,16.62
2022-10-11T17:11:10.911Z,16.56
2022-10-11T17:13:37.654Z,16.65
2022-10-11T17:16:05.048Z,16.70
2022-10-11T17:18:32.749Z,16.69
2022-10-11T17:21:06.265Z,16.66
2022-10-11T17:23:36.435Z,16.68
2022-10-11T17:26:11.048Z,16.67
2022-10-11T17:28:38.899Z,16.65
2022-10-11T17:31:07.490Z,16.60
2022-10-11T17:33:34.658Z,16.66
2022-10-11T17:36:02.461Z,16.60
2022-10-11T17:38:29.586Z,16.62
2022-10-11T17:41:01.508Z,16.66
2022-10-11T17:43:28.786Z,16.63
2022-10-11T17:46:01.286Z,16.56
2022-10-11T17:48:28.895Z,16.59
2022-10-11T17:50:56.073Z,16.59
2022-10-11T17:53:23.096Z,16.59
2022-10-11T17:55:50.406Z,16.50
2022-10-11T17:58:18.462Z,16.50
2022-10-11T18:00:45.513Z,16.51
2022-10-11T18:03:12.326Z,16.52
2022-10-11T18:05:40.925Z,16.44
2022-10-11T18:08:08.458Z,16.48
2022-10-11T18:10:38.534Z,16.46
2022-10-11T18:13:06.791Z,16.36
2022-10-11T18:15:34.360Z,16.43
2022-10-11T18:18:01.554Z,16.43
2022-10-11T18:20:28.406Z,16.39
2022-10-11T18:22:55.178Z,16.41
2022-10-11T18:25:21.953Z,16.44
2022-10-11T18:27:48.695Z,16.32
2022-10-11T18:30:15.655Z,16.31
2022-10-11T18:32:43.874Z,16.40
2022-10-11T18:35:11.185Z,16.38
2022-10-11T18:37:37.958Z,16.30
2022-10-11T18:40:05.368Z,16.16
2022-10-11T18:42:32.209Z,16.23
2022-10-11T18:44:58.982Z,16.28
2022-10-11T18:47:25.783Z,16.24
2022-10-11T18:49:52.576Z,16.18
2022-10-11T18:52:19.363Z,16.15
2022-10-11T18:54:46.455Z,16.10
2022-10-11T18:57:13.612Z,16.11
2022-10-11T18:59:40.452Z,16.01
2022-10-11T19:02:07.223Z,16.08
2022-10-11T19:04:34.303Z,15.90
2022-10-11T19:07:01.240Z,16.00
2022-10-11T19:09:28.823Z,16.05
2022-10-11T19:11:57.852Z,16.05
2022-10-11T19:14:30.749Z,16.00
2022-10-11T19:16:58.193Z,15.96
2022-10-11T19:19:28.366Z,15.92
2022-10-11T19:21:55.357Z,15.87
2022-10-11T19:24:24.998Z,15.84
2022-10-11T19:26:53.061Z,15.83
2022-10-11T19:29:23.455Z,15.85
2022-10-11T19:31:54.586Z,15.87
2022-10-11T19:34:23.894Z,15.87
2022-10-11T19:36:52.674Z,15.87
2022-10-11T19:39:22.143Z,15.76
2022-10-11T19:41:49.343Z,15.80
2022-10-11T19:44:17.350Z,15.76
2022-10-11T19:46:51.495Z,15.71
2022-10-11T19:49:22.453Z,15.75
2022-10-11T19:51:49.298Z,15.75
2022-10-11T19:54:16.468Z,15.74
2022-10-11T19:56:44.477Z,15.70
2022-10-11T19:59:12.537Z,15.70
2022-10-11T20:01:41.335Z,15.63
2022-10-11T20:04:27.395Z,15.62
2022-10-11T20:06:58.392Z,15.57
2022-10-11T20:09:29.933Z,15.64
2022-10-11T20:11:57.757Z,15.65
2022-10-11T20:14:24.836Z,15.63
2022-10-11T20:16:51.953Z,15.63
2022-10-11T20:19:18.895Z,15.57
2022-10-11T20:21:45.739Z,15.57
2022-10-11T20:24:12.991Z,15.63
2022-10-11T20:26:39.908Z,15.62
2022-10-11T20:29:07.111Z,15.63
2022-10-11T20:31:38.442Z,15.51
2022-10-11T20:34:07.262Z,15.56
2022-10-11T20:36:35.963Z,15.59
2022-10-11T20:39:04.510Z,15.58
2022-10-11T20:41:42.805Z,15.43
2022-10-11T20:44:09.716Z,15.48
2022-10-11T20:46:39.172Z,15.49
2022-10-11T20:49:10.354Z,15.53
2022-10-11T20:51:39.326Z,15.50
2022-10-11T20:54:07.232Z,15.41
2022-10-11T20:56:34.805Z,15.48
2022-10-11T20:59:02.094Z,15.56
2022-10-11T21:01:39.537Z,15.54
2022-10-11T21:04:09.799Z,15.52
2022-10-11T21:06:36.626Z,15.48
2022-10-11T21:09:04.330Z,15.44
2022-10-11T21:11:33.703Z,15.43
2022-10-11T21:14:03.944Z,15.51
2022-10-11T21:16:31.976Z,15.53
2022-10-11T21:19:01.335Z,15.51
2022-10-11T21:21:29.817Z,15.51
2022-10-11T21:24:01.582Z,15.50
2022-10-11T21:26:30.104Z,15.36
2022-10-11T21:28:59.198Z,15.48
2022-10-11T21:31:31.070Z,15.21
2022-10-11T21:34:00.499Z,15.47
2022-10-11T21:36:27.692Z,15.48
2022-10-11T21:38:54.894Z,15.50
2022-10-11T21:41:26.866Z,15.57
2022-10-11T21:43:53.839Z,15.55
2022-10-11T21:46:42.005Z,15.56
2022-10-11T21:49:14.373Z,15.44
2022-10-11T21:51:41.163Z,15.51
2022-10-11T21:54:08.014Z,15.49
2022-10-11T21:56:35.762Z,15.48
2022-10-11T21:59:05.384Z,15.51
2022-10-11T22:01:36.654Z,15.41
2022-10-11T22:04:07.135Z,15.52
2022-10-11T22:06:34.449Z,15.52
2022-10-11T22:09:01.222Z,15.49
2022-10-11T22:11:28.105Z,15.49
2022-10-11T22:13:54.885Z,15.53
2022-10-11T22:16:21.773Z,15.47
2022-10-11T22:18:48.656Z,15.45
2022-10-11T22:21:20.646Z,15.32
2022-10-11T22:23:50.243Z,15.50
2022-10-11T22:26:21.096Z,15.44
2022-10-11T22:28:48.551Z,15.50
2022-10-11T22:31:18.080Z,15.54
2022-10-11T22:36:18.850Z,15.53
2022-10-11T22:38:45.807Z,15.54
2022-10-11T22:41:12.737Z,15.52
2022-10-11T22:43:40.158Z,15.51
2022-10-11T22:46:07.977Z,15.57
2022-10-11T22:48:35.403Z,15.53
2022-10-11T22:51:02.805Z,15.56
2022-10-11T22:53:30.533Z,15.49
2022-10-11T22:55:57.543Z,15.50
2022-10-11T22:58:24.365Z,15.46
2022-10-11T23:00:51.177Z,15.42
2022-10-11T23:03:19.135Z,15.53
2022-10-11T23:05:56.163Z,15.53
2022-10-11T23:08:23.255Z,15.56
2022-10-11T23:10:50.070Z,15.50
2022-10-11T23:13:16.865Z,15.54
2022-10-11T23:15:43.881Z,15.54
2022-10-11T23:18:10.745Z,15.52
2022-10-11T23:20:40.755Z,15.54
2022-10-11T23:23:07.635Z,15.44
2022-10-11T23:25:34.426Z,15.46
2022-10-11T23:28:01.928Z,15.50
2022-10-11T23:30:29.610Z,15.51
2022-10-11T23:32:56.756Z,15.56
2022-10-11T23:35:23.727Z,15.56
2022-10-11T23:37:50.527Z,15.57
2022-10-11T23:40:17.505Z,15.53
2022-10-11T23:42:44.298Z,15.57
2022-10-11T23:45:11.112Z,15.44
2022-10-11T23:47:38.177Z,15.44
2022-10-11T23:50:05.860Z,15.59
2022-10-11T23:52:32.617Z,15.49
2022-10-11T23:54:59.459Z,15.52
2022-10-11T23:57:26.321Z,15.49
2022-10-11T23:59:53.085Z,15.44
